sensor_id;sensor_type;location;lat;lon;timestamp;P1;durP1;ratioP1;P2;durP2;ratioP2
69789;SDS011;57064;52.046;4.800;2022-11-15T00:00:41;99.00;;;33.17;;
69789;SDS011;57064;52.046;4.800;2022-11-15T00:03:07;94.03;;;31.20;;
69789;SDS011;57064;52.046;4.800;2022-11-15T00:05:36;100.32;;;31.63;;
69789;SDS011;57064;52.046;4.800;2022-11-15T00:08:02;104.00;;;32.75;;
69789;SDS011;57064;52.046;4.800;2022-11-15T00:10:28;98.63;;;32.97;;
69789;SDS011;57064;52.046;4.800;2022-11-15T00:12:54;105.75;;;32.80;;
69789;SDS011;57064;52.046;4.800;2022-11-15T00:15:20;102.60;;;31.60;;
69789;SDS011;57064;52.046;4.800;2022-11-15T00:17:48;121.75;;;31.92;;
69789;SDS011;57064;52.046;4.800;2022-11-15T00:20:14;110.40;;;34.28;;
69789;SDS011;57064;52.046;4.800;2022-11-15T00:22:42;110.55;;;33.63;;
69789;SDS011;57064;52.046;4.800;2022-11-15T00:25:08;114.57;;;33.60;;
69789;SDS011;57064;52.046;4.800;2022-11-15T00:27:34;135.88;;;34.40;;
69789;SDS011;57064;52.046;4.800;2022-11-15T00:30:00;103.15;;;32.28;;
69789;SDS011;57064;52.046;4.800;2022-11-15T00:32:26;120.68;;;33.72;;
69789;SDS011;57064;52.046;4.800;2022-11-15T00:34:55;121.05;;;36.30;;
69789;SDS011;57064;52.046;4.800;2022-11-15T00:37:21;124.60;;;35.22;;
69789;SDS011;57064;52.046;4.800;2022-11-15T00:39:47;118.22;;;36.15;;
69789;SDS011;57064;52.046;4.800;2022-11-15T00:42:14;116.95;;;33.58;;
69789;SDS011;57064;52.046;4.800;2022-11-15T00:44:40;115.88;;;35.40;;
69789;SDS011;57064;52.046;4.800;2022-11-15T00:47:06;112.00;;;35.08;;
69789;SDS011;57064;52.046;4.800;2022-11-15T00:49:32;115.03;;;32.95;;
69789;SDS011;57064;52.046;4.800;2022-11-15T00:51:58;131.05;;;33.45;;
69789;SDS011;57064;52.046;4.800;2022-11-15T00:54:24;105.45;;;32.13;;
69789;SDS011;57064;52.046;4.800;2022-11-15T00:56:50;109.38;;;31.08;;
69789;SDS011;57064;52.046;4.800;2022-11-15T00:59:16;107.43;;;33.25;;
69789;SDS011;57064;52.046;4.800;2022-11-15T01:01:42;101.45;;;30.83;;
69789;SDS011;57064;52.046;4.800;2022-11-15T01:04:08;119.22;;;33.60;;
69789;SDS011;57064;52.046;4.800;2022-11-15T01:06:34;104.72;;;33.30;;
69789;SDS011;57064;52.046;4.800;2022-11-15T01:09:00;109.88;;;32.95;;
69789;SDS011;57064;52.046;4.800;2022-11-15T01:11:26;113.75;;;35.00;;
69789;SDS011;57064;52.046;4.800;2022-11-15T01:13:52;123.07;;;33.70;;
69789;SDS011;57064;52.046;4.800;2022-11-15T01:16:19;115.55;;;33.53;;
69789;SDS011;57064;52.046;4.800;2022-11-15T01:18:45;126.95;;;32.63;;
69789;SDS011;57064;52.046;4.800;2022-11-15T01:21:12;112.25;;;31.75;;
69789;SDS011;57064;52.046;4.800;2022-11-15T01:23:42;115.97;;;34.20;;
69789;SDS011;57064;52.046;4.800;2022-11-15T01:26:10;123.57;;;32.72;;
69789;SDS011;57064;52.046;4.800;2022-11-15T01:28:38;132.93;;;36.28;;
69789;SDS011;57064;52.046;4.800;2022-11-15T01:31:07;124.53;;;34.75;;
69789;SDS011;57064;52.046;4.800;2022-11-15T01:33:45;129.93;;;36.63;;
69789;SDS011;57064;52.046;4.800;2022-11-15T01:36:16;130.75;;;34.55;;
69789;SDS011;57064;52.046;4.800;2022-11-15T01:38:44;122.57;;;34.90;;
69789;SDS011;57064;52.046;4.800;2022-11-15T01:41:17;124.40;;;34.70;;
69789;SDS011;57064;52.046;4.800;2022-11-15T01:43:46;136.38;;;37.05;;
69789;SDS011;57064;52.046;4.800;2022-11-15T01:48:52;142.20;;;38.95;;
69789;SDS011;57064;52.046;4.800;2022-11-15T01:51:21;134.52;;;38.42;;
69789;SDS011;57064;52.046;4.800;2022-11-15T01:53:51;136.70;;;36.67;;
69789;SDS011;57064;52.046;4.800;2022-11-15T01:56:21;149.70;;;39.25;;
69789;SDS011;57064;52.046;4.800;2022-11-15T01:58:52;131.18;;;37.17;;
69789;SDS011;57064;52.046;4.800;2022-11-15T02:01:20;140.15;;;40.05;;
69789;SDS011;57064;52.046;4.800;2022-11-15T02:06:21;150.05;;;39.20;;
69789;SDS011;57064;52.046;4.800;2022-11-15T02:08:47;151.15;;;40.33;;
69789;SDS011;57064;52.046;4.800;2022-11-15T02:11:14;129.35;;;37.63;;
69789;SDS011;57064;52.046;4.800;2022-11-15T02:13:41;128.15;;;38.90;;
69789;SDS011;57064;52.046;4.800;2022-11-15T02:18:57;127.20;;;38.05;;
69789;SDS011;57064;52.046;4.800;2022-11-15T02:21:42;135.40;;;39.67;;
69789;SDS011;57064;52.046;4.800;2022-11-15T02:24:53;121.75;;;40.83;;
69789;SDS011;57064;52.046;4.800;2022-11-15T02:30:53;158.05;;;42.45;;
69789;SDS011;57064;52.046;4.800;2022-11-15T02:33:41;145.15;;;39.40;;
69789;SDS011;57064;52.046;4.800;2022-11-15T02:36:36;132.90;;;39.92;;
69789;SDS011;57064;52.046;4.800;2022-11-15T02:39:18;140.55;;;39.70;;
69789;SDS011;57064;52.046;4.800;2022-11-15T02:42:14;134.55;;;38.03;;
69789;SDS011;57064;52.046;4.800;2022-11-15T02:45:05;131.13;;;39.42;;
69789;SDS011;57064;52.046;4.800;2022-11-15T02:47:37;133.68;;;38.72;;
69789;SDS011;57064;52.046;4.800;2022-11-15T02:50:11;134.60;;;38.92;;
69789;SDS011;57064;52.046;4.800;2022-11-15T02:52:40;131.13;;;37.55;;
69789;SDS011;57064;52.046;4.800;2022-11-15T02:55:30;129.98;;;39.45;;
69789;SDS011;57064;52.046;4.800;2022-11-15T03:00:26;126.10;;;39.20;;
69789;SDS011;57064;52.046;4.800;2022-11-15T03:16:11;121.40;;;37.67;;
69789;SDS011;57064;52.046;4.800;2022-11-15T03:18:57;120.57;;;37.75;;
69789;SDS011;57064;52.046;4.800;2022-11-15T03:21:29;113.15;;;37.83;;
69789;SDS011;57064;52.046;4.800;2022-11-15T03:23:57;116.13;;;36.67;;
69789;SDS011;57064;52.046;4.800;2022-11-15T03:26:26;104.68;;;36.60;;
69789;SDS011;57064;52.046;4.800;2022-11-15T03:28:55;101.57;;;35.28;;
69789;SDS011;57064;52.046;4.800;2022-11-15T03:31:26;109.40;;;35.65;;
69789;SDS011;57064;52.046;4.800;2022-11-15T03:34:27;101.47;;;34.28;;
69789;SDS011;57064;52.046;4.800;2022-11-15T03:36:56;124.28;;;39.33;;
69789;SDS011;57064;52.046;4.800;2022-11-15T03:39:22;108.28;;;36.85;;
69789;SDS011;57064;52.046;4.800;2022-11-15T03:41:52;96.15;;;36.33;;
69789;SDS011;57064;52.046;4.800;2022-11-15T03:44:40;107.47;;;37.08;;
69789;SDS011;57064;52.046;4.800;2022-11-15T03:47:17;106.20;;;34.17;;
69789;SDS011;57064;52.046;4.800;2022-11-15T03:49:51;106.80;;;36.40;;
69789;SDS011;57064;52.046;4.800;2022-11-15T03:52:22;103.70;;;36.27;;
69789;SDS011;57064;52.046;4.800;2022-11-15T03:54:49;91.38;;;34.00;;
69789;SDS011;57064;52.046;4.800;2022-11-15T03:57:17;94.70;;;33.85;;
69789;SDS011;57064;52.046;4.800;2022-11-15T03:59:43;98.25;;;35.83;;
69789;SDS011;57064;52.046;4.800;2022-11-15T04:02:09;99.85;;;34.20;;
69789;SDS011;57064;52.046;4.800;2022-11-15T04:04:35;95.50;;;34.95;;
69789;SDS011;57064;52.046;4.800;2022-11-15T04:07:01;97.72;;;34.03;;
69789;SDS011;57064;52.046;4.800;2022-11-15T04:09:28;98.82;;;34.78;;
69789;SDS011;57064;52.046;4.800;2022-11-15T04:11:54;93.10;;;32.90;;
69789;SDS011;57064;52.046;4.800;2022-11-15T04:14:20;91.30;;;33.88;;
69789;SDS011;57064;52.046;4.800;2022-11-15T04:16:46;94.50;;;36.33;;
69789;SDS011;57064;52.046;4.800;2022-11-15T04:19:12;86.55;;;32.33;;
69789;SDS011;57064;52.046;4.800;2022-11-15T04:21:56;88.13;;;33.83;;
69789;SDS011;57064;52.046;4.800;2022-11-15T04:24:43;99.10;;;34.30;;
69789;SDS011;57064;52.046;4.800;2022-11-15T04:27:09;82.70;;;33.70;;
69789;SDS011;57064;52.046;4.800;2022-11-15T04:29:37;88.75;;;31.10;;
69789;SDS011;57064;52.046;4.800;2022-11-15T04:32:04;82.28;;;32.38;;
69789;SDS011;57064;52.046;4.800;2022-11-15T04:34:31;86.93;;;33.72;;
69789;SDS011;57064;52.046;4.800;2022-11-15T04:36:58;84.10;;;31.88;;
69789;SDS011;57064;52.046;4.800;2022-11-15T04:39:36;79.53;;;32.13;;
69789;SDS011;57064;52.046;4.800;2022-11-15T04:42:03;76.15;;;30.33;;
69789;SDS011;57064;52.046;4.800;2022-11-15T04:44:29;77.35;;;30.52;;
69789;SDS011;57064;52.046;4.800;2022-11-15T04:46:56;81.30;;;31.20;;
69789;SDS011;57064;52.046;4.800;2022-11-15T04:49:22;83.40;;;30.80;;
69789;SDS011;57064;52.046;4.800;2022-11-15T04:51:48;79.47;;;29.40;;
69789;SDS011;57064;52.046;4.800;2022-11-15T04:54:14;79.05;;;30.42;;
69789;SDS011;57064;52.046;4.800;2022-11-15T04:56:40;74.53;;;30.83;;
69789;SDS011;57064;52.046;4.800;2022-11-15T04:59:06;78.07;;;28.75;;
69789;SDS011;57064;52.046;4.800;2022-11-15T05:01:32;81.78;;;29.10;;
69789;SDS011;57064;52.046;4.800;2022-11-15T05:03:58;75.60;;;28.80;;
69789;SDS011;57064;52.046;4.800;2022-11-15T05:06:43;70.78;;;29.88;;
69789;SDS011;57064;52.046;4.800;2022-11-15T05:09:09;74.80;;;30.60;;
69789;SDS011;57064;52.046;4.800;2022-11-15T05:11:35;78.07;;;30.50;;
69789;SDS011;57064;52.046;4.800;2022-11-15T05:14:01;82.38;;;31.35;;
69789;SDS011;57064;52.046;4.800;2022-11-15T05:16:28;76.80;;;29.63;;
69789;SDS011;57064;52.046;4.800;2022-11-15T05:18:54;77.90;;;31.85;;
69789;SDS011;57064;52.046;4.800;2022-11-15T05:21:20;79.10;;;29.13;;
69789;SDS011;57064;52.046;4.800;2022-11-15T05:23:46;82.28;;;30.60;;
69789;SDS011;57064;52.046;4.800;2022-11-15T05:26:13;77.43;;;30.00;;
69789;SDS011;57064;52.046;4.800;2022-11-15T05:28:41;82.22;;;30.05;;
69789;SDS011;57064;52.046;4.800;2022-11-15T05:31:09;75.70;;;29.65;;
69789;SDS011;57064;52.046;4.800;2022-11-15T05:33:37;72.47;;;27.80;;
69789;SDS011;57064;52.046;4.800;2022-11-15T05:38:39;69.70;;;28.10;;
69789;SDS011;57064;52.046;4.800;2022-11-15T05:41:05;80.13;;;29.40;;
69789;SDS011;57064;52.046;4.800;2022-11-15T05:43:32;68.38;;;27.70;;
69789;SDS011;57064;52.046;4.800;2022-11-15T05:46:01;78.97;;;29.05;;
69789;SDS011;57064;52.046;4.800;2022-11-15T05:48:29;80.15;;;29.52;;
69789;SDS011;57064;52.046;4.800;2022-11-15T05:50:56;74.63;;;25.65;;
69789;SDS011;57064;52.046;4.800;2022-11-15T05:53:23;70.35;;;27.08;;
69789;SDS011;57064;52.046;4.800;2022-11-15T05:55:50;73.45;;;28.70;;
69789;SDS011;57064;52.046;4.800;2022-11-15T05:58:17;71.53;;;27.55;;
69789;SDS011;57064;52.046;4.800;2022-11-15T06:00:45;70.20;;;28.55;;
69789;SDS011;57064;52.046;4.800;2022-11-15T06:03:11;82.00;;;30.48;;
69789;SDS011;57064;52.046;4.800;2022-11-15T06:05:39;70.65;;;28.00;;
69789;SDS011;57064;52.046;4.800;2022-11-15T06:08:05;66.32;;;26.63;;
69789;SDS011;57064;52.046;4.800;2022-11-15T06:10:32;84.75;;;30.52;;
69789;SDS011;57064;52.046;4.800;2022-11-15T06:12:58;71.45;;;27.60;;
69789;SDS011;57064;52.046;4.800;2022-11-15T06:15:26;78.07;;;29.45;;
69789;SDS011;57064;52.046;4.800;2022-11-15T06:17:52;64.60;;;27.15;;
69789;SDS011;57064;52.046;4.800;2022-11-15T06:20:22;72.80;;;28.13;;
69789;SDS011;57064;52.046;4.800;2022-11-15T06:23:01;82.70;;;31.65;;
69789;SDS011;57064;52.046;4.800;2022-11-15T06:25:29;81.18;;;28.25;;
69789;SDS011;57064;52.046;4.800;2022-11-15T06:27:56;79.25;;;29.58;;
69789;SDS011;57064;52.046;4.800;2022-11-15T06:30:23;71.28;;;28.70;;
69789;SDS011;57064;52.046;4.800;2022-11-15T06:32:51;78.25;;;27.70;;
69789;SDS011;57064;52.046;4.800;2022-11-15T06:37:49;70.15;;;25.85;;
69789;SDS011;57064;52.046;4.800;2022-11-15T06:40:15;70.70;;;26.70;;
69789;SDS011;57064;52.046;4.800;2022-11-15T06:42:41;71.93;;;29.38;;
69789;SDS011;57064;52.046;4.800;2022-11-15T06:45:07;71.45;;;29.77;;
69789;SDS011;57064;52.046;4.800;2022-11-15T06:47:33;73.95;;;27.38;;
69789;SDS011;57064;52.046;4.800;2022-11-15T06:49:59;75.00;;;30.35;;
69789;SDS011;57064;52.046;4.800;2022-11-15T06:52:26;75.47;;;30.20;;
69789;SDS011;57064;52.046;4.800;2022-11-15T06:54:57;76.85;;;27.90;;
69789;SDS011;57064;52.046;4.800;2022-11-15T06:57:23;72.88;;;27.10;;
69789;SDS011;57064;52.046;4.800;2022-11-15T06:59:49;80.88;;;26.52;;
69789;SDS011;57064;52.046;4.800;2022-11-15T07:02:15;73.70;;;26.98;;
69789;SDS011;57064;52.046;4.800;2022-11-15T07:04:41;70.35;;;26.13;;
69789;SDS011;57064;52.046;4.800;2022-11-15T07:07:09;66.05;;;26.95;;
69789;SDS011;57064;52.046;4.800;2022-11-15T07:09:35;71.43;;;27.60;;
69789;SDS011;57064;52.046;4.800;2022-11-15T07:12:01;75.45;;;27.00;;
69789;SDS011;57064;52.046;4.800;2022-11-15T07:14:27;72.22;;;26.23;;
69789;SDS011;57064;52.046;4.800;2022-11-15T07:16:53;77.43;;;28.17;;
69789;SDS011;57064;52.046;4.800;2022-11-15T07:19:19;77.00;;;27.17;;
69789;SDS011;57064;52.046;4.800;2022-11-15T07:21:45;65.30;;;28.65;;
69789;SDS011;57064;52.046;4.800;2022-11-15T07:24:11;67.75;;;26.73;;
69789;SDS011;57064;52.046;4.800;2022-11-15T07:26:38;66.95;;;24.90;;
69789;SDS011;57064;52.046;4.800;2022-11-15T07:29:04;69.40;;;24.90;;
69789;SDS011;57064;52.046;4.800;2022-11-15T07:31:30;68.57;;;25.85;;
69789;SDS011;57064;52.046;4.800;2022-11-15T07:33:57;79.28;;;26.30;;
69789;SDS011;57064;52.046;4.800;2022-11-15T07:36:23;67.90;;;24.75;;
69789;SDS011;57064;52.046;4.800;2022-11-15T07:38:49;64.28;;;23.05;;
69789;SDS011;57064;52.046;4.800;2022-11-15T07:41:15;67.90;;;25.20;;
69789;SDS011;57064;52.046;4.800;2022-11-15T07:43:41;65.50;;;27.45;;
69789;SDS011;57064;52.046;4.800;2022-11-15T07:46:08;61.25;;;23.98;;
69789;SDS011;57064;52.046;4.800;2022-11-15T07:48:35;64.40;;;24.15;;
69789;SDS011;57064;52.046;4.800;2022-11-15T07:51:02;62.85;;;24.40;;
69789;SDS011;57064;52.046;4.800;2022-11-15T07:53:28;69.75;;;23.92;;
69789;SDS011;57064;52.046;4.800;2022-11-15T07:55:54;67.13;;;23.58;;
69789;SDS011;57064;52.046;4.800;2022-11-15T07:58:20;72.28;;;25.20;;
69789;SDS011;57064;52.046;4.800;2022-11-15T08:00:46;57.83;;;22.63;;
69789;SDS011;57064;52.046;4.800;2022-11-15T08:03:13;54.85;;;23.67;;
69789;SDS011;57064;52.046;4.800;2022-11-15T08:05:41;65.90;;;23.13;;
69789;SDS011;57064;52.046;4.800;2022-11-15T08:08:09;67.78;;;22.48;;
69789;SDS011;57064;52.046;4.800;2022-11-15T08:10:36;57.78;;;21.90;;
69789;SDS011;57064;52.046;4.800;2022-11-15T08:13:04;60.00;;;22.83;;
69789;SDS011;57064;52.046;4.800;2022-11-15T08:15:32;56.03;;;21.55;;
69789;SDS011;57064;52.046;4.800;2022-11-15T08:18:00;55.95;;;21.55;;
69789;SDS011;57064;52.046;4.800;2022-11-15T08:20:29;52.97;;;20.20;;
69789;SDS011;57064;52.046;4.800;2022-11-15T08:22:59;59.15;;;21.55;;
69789;SDS011;57064;52.046;4.800;2022-11-15T08:25:26;50.53;;;19.17;;
69789;SDS011;57064;52.046;4.800;2022-11-15T08:27:55;50.33;;;19.83;;
69789;SDS011;57064;52.046;4.800;2022-11-15T08:30:24;48.03;;;19.77;;
69789;SDS011;57064;52.046;4.800;2022-11-15T08:32:51;55.42;;;19.63;;
69789;SDS011;57064;52.046;4.800;2022-11-15T08:35:18;53.80;;;17.52;;
69789;SDS011;57064;52.046;4.800;2022-11-15T08:37:45;51.90;;;19.27;;
69789;SDS011;57064;52.046;4.800;2022-11-15T08:40:11;51.38;;;18.00;;
69789;SDS011;57064;52.046;4.800;2022-11-15T08:42:39;46.60;;;17.60;;
69789;SDS011;57064;52.046;4.800;2022-11-15T08:45:05;48.97;;;17.33;;
69789;SDS011;57064;52.046;4.800;2022-11-15T08:47:33;43.10;;;15.07;;
69789;SDS011;57064;52.046;4.800;2022-11-15T08:49:59;40.03;;;15.40;;
69789;SDS011;57064;52.046;4.800;2022-11-15T08:52:25;40.08;;;16.83;;
69789;SDS011;57064;52.046;4.800;2022-11-15T08:54:51;44.40;;;15.65;;
69789;SDS011;57064;52.046;4.800;2022-11-15T08:57:17;42.72;;;16.92;;
69789;SDS011;57064;52.046;4.800;2022-11-15T08:59:43;47.38;;;15.70;;
69789;SDS011;57064;52.046;4.800;2022-11-15T09:02:11;46.70;;;16.55;;
69789;SDS011;57064;52.046;4.800;2022-11-15T09:04:40;36.70;;;14.55;;
69789;SDS011;57064;52.046;4.800;2022-11-15T09:07:07;41.50;;;16.20;;
69789;SDS011;57064;52.046;4.800;2022-11-15T09:09:36;39.85;;;14.82;;
69789;SDS011;57064;52.046;4.800;2022-11-15T09:12:03;38.58;;;15.07;;
69789;SDS011;57064;52.046;4.800;2022-11-15T09:14:30;39.78;;;15.07;;
69789;SDS011;57064;52.046;4.800;2022-11-15T09:16:57;44.25;;;15.57;;
69789;SDS011;57064;52.046;4.800;2022-11-15T09:19:23;42.90;;;16.67;;
69789;SDS011;57064;52.046;4.800;2022-11-15T09:21:49;40.00;;;16.35;;
69789;SDS011;57064;52.046;4.800;2022-11-15T09:24:16;39.70;;;14.15;;
69789;SDS011;57064;52.046;4.800;2022-11-15T09:26:42;35.92;;;15.80;;
69789;SDS011;57064;52.046;4.800;2022-11-15T09:29:09;37.53;;;15.05;;
69789;SDS011;57064;52.046;4.800;2022-11-15T09:31:35;42.15;;;14.52;;
69789;SDS011;57064;52.046;4.800;2022-11-15T09:34:01;38.80;;;15.20;;
69789;SDS011;57064;52.046;4.800;2022-11-15T09:36:27;28.70;;;13.25;;
69789;SDS011;57064;52.046;4.800;2022-11-15T09:38:54;28.05;;;12.85;;
69789;SDS011;57064;52.046;4.800;2022-11-15T09:49:33;17.40;;;9.13;;
69789;SDS011;57064;52.046;4.800;2022-11-15T09:52:00;19.95;;;9.10;;
69789;SDS011;57064;52.046;4.800;2022-11-15T09:54:36;22.17;;;8.88;;
69789;SDS011;57064;52.046;4.800;2022-11-15T09:57:14;17.23;;;8.90;;
69789;SDS011;57064;52.046;4.800;2022-11-15T10:05:09;14.65;;;8.07;;
69789;SDS011;57064;52.046;4.800;2022-11-15T10:07:40;13.30;;;6.95;;
69789;SDS011;57064;52.046;4.800;2022-11-15T10:10:30;13.18;;;7.53;;
69789;SDS011;57064;52.046;4.800;2022-11-15T10:13:06;10.60;;;6.68;;
69789;SDS011;57064;52.046;4.800;2022-11-15T10:15:50;12.85;;;5.95;;
69789;SDS011;57064;52.046;4.800;2022-11-15T10:18:28;9.90;;;5.82;;
69789;SDS011;57064;52.046;4.800;2022-11-15T10:21:18;10.43;;;5.47;;
69789;SDS011;57064;52.046;4.800;2022-11-15T10:23:54;10.05;;;5.55;;
69789;SDS011;57064;52.046;4.800;2022-11-15T10:26:20;12.93;;;5.28;;
69789;SDS011;57064;52.046;4.800;2022-11-15T10:28:48;9.32;;;4.72;;
69789;SDS011;57064;52.046;4.800;2022-11-15T10:31:27;11.82;;;5.00;;
69789;SDS011;57064;52.046;4.800;2022-11-15T10:34:16;9.45;;;4.43;;
69789;SDS011;57064;52.046;4.800;2022-11-15T10:36:54;11.98;;;4.22;;
69789;SDS011;57064;52.046;4.800;2022-11-15T10:39:22;8.57;;;4.57;;
69789;SDS011;57064;52.046;4.800;2022-11-15T10:41:48;6.35;;;3.72;;
69789;SDS011;57064;52.046;4.800;2022-11-15T10:46:47;8.73;;;3.60;;
69789;SDS011;57064;52.046;4.800;2022-11-15T10:49:34;7.82;;;2.90;;
69789;SDS011;57064;52.046;4.800;2022-11-15T10:57:28;6.10;;;2.78;;
69789;SDS011;57064;52.046;4.800;2022-11-15T11:02:29;7.00;;;2.77;;
69789;SDS011;57064;52.046;4.800;2022-11-15T11:05:03;6.47;;;2.88;;
69789;SDS011;57064;52.046;4.800;2022-11-15T11:07:47;9.18;;;3.33;;
69789;SDS011;57064;52.046;4.800;2022-11-15T11:10:57;9.70;;;3.47;;
69789;SDS011;57064;52.046;4.800;2022-11-15T11:19:08;6.93;;;2.50;;
69789;SDS011;57064;52.046;4.800;2022-11-15T11:21:59;8.23;;;3.42;;
69789;SDS011;57064;52.046;4.800;2022-11-15T11:30:12;7.63;;;2.70;;
69789;SDS011;57064;52.046;4.800;2022-11-15T11:38:17;11.07;;;3.17;;
69789;SDS011;57064;52.046;4.800;2022-11-15T11:41:04;9.20;;;2.63;;
69789;SDS011;57064;52.046;4.800;2022-11-15T11:48:46;9.88;;;2.47;;
69789;SDS011;57064;52.046;4.800;2022-11-15T11:51:33;5.20;;;2.28;;
69789;SDS011;57064;52.046;4.800;2022-11-15T11:54:14;5.10;;;2.35;;
69789;SDS011;57064;52.046;4.800;2022-11-15T11:56:55;5.80;;;2.08;;
69789;SDS011;57064;52.046;4.800;2022-11-15T11:59:39;16.13;;;5.80;;
69789;SDS011;57064;52.046;4.800;2022-11-15T12:02:12;4.53;;;1.88;;
69789;SDS011;57064;52.046;4.800;2022-11-15T12:04:48;4.97;;;2.08;;
69789;SDS011;57064;52.046;4.800;2022-11-15T12:07:20;4.50;;;1.95;;
69789;SDS011;57064;52.046;4.800;2022-11-15T12:10:05;8.48;;;3.25;;
69789;SDS011;57064;52.046;4.800;2022-11-15T12:12:55;5.00;;;2.03;;
69789;SDS011;57064;52.046;4.800;2022-11-15T12:15:30;3.08;;;1.88;;
69789;SDS011;57064;52.046;4.800;2022-11-15T12:18:02;6.55;;;2.13;;
69789;SDS011;57064;52.046;4.800;2022-11-15T12:20:38;6.10;;;2.20;;
69789;SDS011;57064;52.046;4.800;2022-11-15T12:28:15;4.97;;;2.42;;
69789;SDS011;57064;52.046;4.800;2022-11-15T12:30:54;5.05;;;2.45;;
69789;SDS011;57064;52.046;4.800;2022-11-15T12:33:32;7.40;;;2.20;;
69789;SDS011;57064;52.046;4.800;2022-11-15T12:36:04;6.60;;;2.70;;
69789;SDS011;57064;52.046;4.800;2022-11-15T12:41:34;5.22;;;2.25;;
69789;SDS011;57064;52.046;4.800;2022-11-15T12:44:02;4.60;;;1.90;;
69789;SDS011;57064;52.046;4.800;2022-11-15T12:48:56;11.07;;;3.10;;
69789;SDS011;57064;52.046;4.800;2022-11-15T12:54:58;6.63;;;2.30;;
69789;SDS011;57064;52.046;4.800;2022-11-15T12:59:52;9.80;;;2.92;;
69789;SDS011;57064;52.046;4.800;2022-11-15T13:02:21;6.13;;;1.50;;
69789;SDS011;57064;52.046;4.800;2022-11-15T13:04:50;6.68;;;2.55;;
69789;SDS011;57064;52.046;4.800;2022-11-15T13:07:54;5.70;;;1.60;;
69789;SDS011;57064;52.046;4.800;2022-11-15T13:22:42;2.40;;;1.20;;
69789;SDS011;57064;52.046;4.800;2022-11-15T13:33:17;6.32;;;1.60;;
69789;SDS011;57064;52.046;4.800;2022-11-15T13:35:46;2.83;;;1.20;;
69789;SDS011;57064;52.046;4.800;2022-11-15T13:38:25;6.20;;;1.45;;
69789;SDS011;57064;52.046;4.800;2022-11-15T13:40:59;5.40;;;0.98;;
69789;SDS011;57064;52.046;4.800;2022-11-15T13:43:36;5.55;;;0.98;;
69789;SDS011;57064;52.046;4.800;2022-11-15T13:48:40;5.22;;;0.90;;
69789;SDS011;57064;52.046;4.800;2022-11-15T13:51:32;1.90;;;0.70;;
69789;SDS011;57064;52.046;4.800;2022-11-15T13:54:19;6.55;;;0.93;;
69789;SDS011;57064;52.046;4.800;2022-11-15T13:57:09;2.25;;;0.75;;
69789;SDS011;57064;52.046;4.800;2022-11-15T13:59:57;3.40;;;0.90;;
69789;SDS011;57064;52.046;4.800;2022-11-15T14:02:31;4.50;;;0.85;;
69789;SDS011;57064;52.046;4.800;2022-11-15T14:05:12;6.15;;;0.93;;
69789;SDS011;57064;52.046;4.800;2022-11-15T14:10:36;3.92;;;1.13;;
69789;SDS011;57064;52.046;4.800;2022-11-15T14:13:03;8.57;;;1.30;;
69789;SDS011;57064;52.046;4.800;2022-11-15T14:18:02;6.65;;;1.15;;
69789;SDS011;57064;52.046;4.800;2022-11-15T14:20:31;7.57;;;1.70;;
69789;SDS011;57064;52.046;4.800;2022-11-15T14:23:03;4.85;;;1.77;;
69789;SDS011;57064;52.046;4.800;2022-11-15T14:25:56;9.13;;;3.28;;
69789;SDS011;57064;52.046;4.800;2022-11-15T14:30:50;15.13;;;5.85;;
69789;SDS011;57064;52.046;4.800;2022-11-15T14:33:22;9.32;;;3.50;;
69789;SDS011;57064;52.046;4.800;2022-11-15T14:35:49;4.25;;;1.40;;
69789;SDS011;57064;52.046;4.800;2022-11-15T14:38:16;6.55;;;1.00;;
69789;SDS011;57064;52.046;4.800;2022-11-15T14:40:43;5.55;;;1.98;;
69789;SDS011;57064;52.046;4.800;2022-11-15T14:43:09;4.38;;;0.85;;
69789;SDS011;57064;52.046;4.800;2022-11-15T14:45:37;2.80;;;1.30;;
69789;SDS011;57064;52.046;4.800;2022-11-15T14:48:03;3.17;;;1.08;;
69789;SDS011;57064;52.046;4.800;2022-11-15T14:50:29;3.67;;;0.98;;
69789;SDS011;57064;52.046;4.800;2022-11-15T14:52:57;3.70;;;1.00;;
69789;SDS011;57064;52.046;4.800;2022-11-15T14:55:25;4.00;;;1.05;;
69789;SDS011;57064;52.046;4.800;2022-11-15T14:57:54;3.78;;;0.88;;
69789;SDS011;57064;52.046;4.800;2022-11-15T15:00:20;5.10;;;0.90;;
69789;SDS011;57064;52.046;4.800;2022-11-15T15:02:47;4.72;;;0.85;;
69789;SDS011;57064;52.046;4.800;2022-11-15T15:07:45;2.15;;;0.82;;
69789;SDS011;57064;52.046;4.800;2022-11-15T15:10:11;4.35;;;0.93;;
69789;SDS011;57064;52.046;4.800;2022-11-15T15:12:38;3.25;;;1.05;;
69789;SDS011;57064;52.046;4.800;2022-11-15T15:15:05;4.13;;;1.23;;
69789;SDS011;57064;52.046;4.800;2022-11-15T15:17:34;2.55;;;1.08;;
69789;SDS011;57064;52.046;4.800;2022-11-15T15:20:00;4.82;;;1.60;;
69789;SDS011;57064;52.046;4.800;2022-11-15T15:22:26;12.95;;;4.40;;
69789;SDS011;57064;52.046;4.800;2022-11-15T15:24:54;5.78;;;1.83;;
69789;SDS011;57064;52.046;4.800;2022-11-15T15:27:21;4.10;;;1.13;;
69789;SDS011;57064;52.046;4.800;2022-11-15T15:29:47;5.53;;;1.40;;
69789;SDS011;57064;52.046;4.800;2022-11-15T15:32:13;3.22;;;1.77;;
69789;SDS011;57064;52.046;4.800;2022-11-15T15:34:39;7.90;;;2.15;;
69789;SDS011;57064;52.046;4.800;2022-11-15T15:39:49;5.88;;;2.15;;
69789;SDS011;57064;52.046;4.800;2022-11-15T15:42:17;5.32;;;2.10;;
69789;SDS011;57064;52.046;4.800;2022-11-15T15:44:44;5.75;;;2.28;;
69789;SDS011;57064;52.046;4.800;2022-11-15T15:47:11;3.83;;;1.77;;
69789;SDS011;57064;52.046;4.800;2022-11-15T15:49:45;4.32;;;1.95;;
69789;SDS011;57064;52.046;4.800;2022-11-15T15:52:11;6.20;;;2.05;;
69789;SDS011;57064;52.046;4.800;2022-11-15T15:54:38;5.20;;;2.55;;
69789;SDS011;57064;52.046;4.800;2022-11-15T15:57:04;7.22;;;2.15;;
69789;SDS011;57064;52.046;4.800;2022-11-15T15:59:31;5.75;;;2.30;;
69789;SDS011;57064;52.046;4.800;2022-11-15T16:01:57;6.72;;;2.00;;
69789;SDS011;57064;52.046;4.800;2022-11-15T16:04:24;8.35;;;2.03;;
69789;SDS011;57064;52.046;4.800;2022-11-15T16:06:50;7.05;;;2.25;;
69789;SDS011;57064;52.046;4.800;2022-11-15T16:09:19;10.05;;;3.05;;
69789;SDS011;57064;52.046;4.800;2022-11-15T16:12:08;7.40;;;2.97;;
69789;SDS011;57064;52.046;4.800;2022-11-15T16:14:34;6.90;;;2.80;;
69789;SDS011;57064;52.046;4.800;2022-11-15T16:17:01;9.48;;;3.42;;
69789;SDS011;57064;52.046;4.800;2022-11-15T16:19:27;8.38;;;3.10;;
69789;SDS011;57064;52.046;4.800;2022-11-15T16:21:53;11.32;;;3.47;;
69789;SDS011;57064;52.046;4.800;2022-11-15T16:24:20;8.73;;;3.47;;
69789;SDS011;57064;52.046;4.800;2022-11-15T16:26:46;8.60;;;3.03;;
69789;SDS011;57064;52.046;4.800;2022-11-15T16:29:13;8.07;;;2.75;;
69789;SDS011;57064;52.046;4.800;2022-11-15T16:31:39;6.65;;;2.90;;
69789;SDS011;57064;52.046;4.800;2022-11-15T16:34:05;8.77;;;3.15;;
69789;SDS011;57064;52.046;4.800;2022-11-15T16:36:32;7.18;;;3.45;;
69789;SDS011;57064;52.046;4.800;2022-11-15T16:38:59;11.80;;;4.25;;
69789;SDS011;57064;52.046;4.800;2022-11-15T16:41:29;7.55;;;2.90;;
69789;SDS011;57064;52.046;4.800;2022-11-15T16:43:55;9.45;;;5.00;;
69789;SDS011;57064;52.046;4.800;2022-11-15T16:46:25;6.47;;;3.63;;
69789;SDS011;57064;52.046;4.800;2022-11-15T16:48:52;9.52;;;3.08;;
69789;SDS011;57064;52.046;4.800;2022-11-15T16:51:18;8.55;;;2.60;;
69789;SDS011;57064;52.046;4.800;2022-11-15T16:53:45;4.40;;;2.30;;
69789;SDS011;57064;52.046;4.800;2022-11-15T16:56:21;6.60;;;2.78;;